Time;durP1;ratioP1;P1;durP2;ratioP2;P2;SDS_P1;SDS_P2;PMS_P1;PMS_P2;Temp;Humidity;BMP_temperature;BMP_pressure;BME280_temperature;BME280_humidity;BME280_pressure;Samples;Min_cycle;Max_cycle;Signal;HPM_P1;HPM_P2
2022/06/20 00:00:49;;;;;;;2.10;0.80;;;;;;;25.96;42.81;101292.06;5029067;28;20116;-71
2022/06/20 00:03:27;;;;;;;2.15;0.80;;;;;;;25.93;42.84;101290.38;5028710;28;20029;-71
2022/06/20 00:05:53;;;;;;;1.33;0.70;;;;;;;25.93;43.03;101308.22;5028268;28;20052;-71
2022/06/20 00:08:19;;;;;;;1.98;0.88;;;;;;;25.94;42.71;101299.28;5027525;28;20438;-71
2022/06/20 00:10:45;;;;;;;1.83;0.80;;;;;;;25.93;42.73;101301.06;5028762;28;20513;-71
2022/06/20 00:13:24;;;;;;;1.98;0.70;;;;;;;25.94;42.68;101283.25;5028578;28;20087;-71
2022/06/20 00:15:51;;;;;;;2.22;0.80;;;;;;;25.93;42.65;101266.34;5022462;28;20091;-71
2022/06/20 00:18:17;;;;;;;3.17;0.70;;;;;;;25.92;42.65;101253.94;5028572;28;20503;-71
2022/06/20 00:20:43;;;;;;;1.42;0.80;;;;;;;25.91;42.96;101238.84;5029000;28;20029;-70
2022/06/20 00:23:09;;;;;;;1.98;0.80;;;;;;;25.90;42.82;101237.13;5025657;28;20037;-71
2022/06/20 00:25:36;;;;;;;1.55;0.80;;;;;;;25.89;42.65;101251.41;5028101;28;20056;-71
2022/06/20 00:28:02;;;;;;;1.73;0.70;;;;;;;25.91;42.77;101252.22;5028629;28;20116;-71
2022/06/20 00:30:27;;;;;;;2.47;0.90;;;;;;;25.88;42.92;101255.00;5028452;28;20444;-71
2022/06/20 00:32:53;;;;;;;2.05;0.70;;;;;;;25.85;43.10;101258.69;5028521;28;20036;-71
2022/06/20 00:35:19;;;;;;;1.73;0.70;;;;;;;25.87;42.92;101255.94;5027658;28;20487;-70
2022/06/20 00:37:44;;;;;;;4.28;0.85;;;;;;;25.85;42.98;101244.47;5028160;28;20052;-71
2022/06/20 00:40:43;;;;;;;1.90;0.82;;;;;;;25.85;42.88;101220.44;5028526;28;20396;-71
2022/06/20 00:43:13;;;;;;;1.85;0.70;;;;;;;25.88;42.79;101251.47;5028182;28;20033;-71
2022/06/20 00:45:47;;;;;;;1.33;0.68;;;;;;;25.86;42.61;101264.88;5028420;28;20036;-71
2022/06/20 00:48:22;;;;;;;1.40;0.70;;;;;;;25.87;42.84;101290.66;5026431;28;20349;-71
2022/06/20 00:50:50;;;;;;;1.63;0.80;;;;;;;25.86;42.86;101289.78;5028225;28;20042;-71
2022/06/20 00:53:34;;;;;;;1.63;0.70;;;;;;;25.84;42.92;101296.16;5028371;28;20021;-71
2022/06/20 00:56:07;;;;;;;1.23;0.70;;;;;;;25.85;42.68;101295.22;5027011;28;20036;-71
2022/06/20 00:58:35;;;;;;;3.92;0.90;;;;;;;25.79;42.95;101282.13;5028279;28;20082;-71
2022/06/20 01:01:01;;;;;;;1.63;0.80;;;;;;;25.79;42.82;101282.13;5028536;28;20029;-71
2022/06/20 01:03:34;;;;;;;1.17;0.70;;;;;;;25.77;42.82;101279.53;5027446;28;20125;-71
2022/06/20 01:06:08;;;;;;;1.23;0.70;;;;;;;25.81;42.69;101288.25;5026781;28;20064;-71
2022/06/20 01:08:56;;;;;;;2.55;0.70;;;;;;;25.80;42.74;101298.06;5027898;28;20049;-71
2022/06/20 01:11:31;;;;;;;1.95;0.80;;;;;;;25.79;42.80;101290.13;5031132;28;20087;-71
2022/06/20 01:13:56;;;;;;;2.33;0.80;;;;;;;25.79;42.63;101296.34;5047058;28;20048;-71
2022/06/20 01:16:25;;;;;;;1.50;0.68;;;;;;;25.79;42.58;101279.47;5031731;28;20025;-71
2022/06/20 01:18:52;;;;;;;1.35;0.70;;;;;;;25.76;42.70;101275.09;5028688;28;20084;-71
2022/06/20 01:21:23;;;;;;;2.28;0.80;;;;;;;25.77;42.71;101276.84;5031776;28;20055;-71
2022/06/20 01:24:06;;;;;;;1.92;0.75;;;;;;;25.78;42.71;101267.91;5031672;28;20045;-71
2022/06/20 01:26:44;;;;;;;1.33;0.70;;;;;;;25.76;42.85;101277.78;5028531;28;20025;-71
2022/06/20 01:29:11;;;;;;;1.40;0.70;;;;;;;25.75;42.86;101289.38;5031006;28;20028;-71
2022/06/20 01:31:49;;;;;;;2.38;0.70;;;;;;;25.74;42.96;101290.31;5030948;28;20176;-71
2022/06/20 01:34:17;;;;;;;1.42;0.70;;;;;;;25.74;42.96;101284.97;5031403;28;20032;-71
2022/06/20 01:39:35;;;;;;;1.77;0.90;;;;;;;25.70;42.55;101290.53;5025890;28;20483;-71
2022/06/20 01:42:21;;;;;;;2.30;0.70;;;;;;;25.70;42.89;101282.50;5030499;28;20033;-71
2022/06/20 01:44:58;;;;;;;1.05;0.60;;;;;;;25.68;42.83;101295.91;5046959;28;20598;-71
2022/06/20 01:47:23;;;;;;;3.53;0.90;;;;;;;25.31;43.65;101290.38;5030681;28;20029;-71
2022/06/20 01:49:53;;;;;;;1.10;0.60;;;;;;;25.57;43.04;101295.50;5031052;28;20059;-71
2022/06/20 01:52:27;;;;;;;1.33;0.60;;;;;;;25.63;43.17;101289.03;5031046;28;20040;-71
2022/06/20 01:55:00;;;;;;;1.77;0.70;;;;;;;25.65;42.88;101295.19;5031246;28;20379;-71
2022/06/20 01:57:29;;;;;;;1.38;0.70;;;;;;;25.64;42.77;101297.00;5031029;28;20029;-71
2022/06/20 02:00:06;;;;;;;1.48;0.60;;;;;;;25.66;42.87;101294.25;5030993;28;20108;-71
2022/06/20 02:02:37;;;;;;;1.42;0.70;;;;;;;25.66;42.76;101299.59;5031071;28;20029;-71
2022/06/20 02:05:06;;;;;;;1.40;0.70;;;;;;;25.66;42.85;101302.28;5031053;28;20071;-71
2022/06/20 02:07:32;;;;;;;2.17;0.70;;;;;;;25.65;42.82;101314.75;5030834;28;20699;-71
2022/06/20 02:09:58;;;;;;;1.45;0.70;;;;;;;25.63;42.75;101305.94;5031004;28;20394;-71
2022/06/20 02:12:25;;;;;;;1.73;0.65;;;;;;;25.64;42.85;101306.81;5030680;28;20025;-71
2022/06/20 02:14:56;;;;;;;2.67;0.63;;;;;;;25.63;42.83;101307.72;5029068;28;20034;-71
2022/06/20 02:17:29;;;;;;;1.15;0.70;;;;;;;25.64;42.75;101314.81;5030773;28;20029;-71
2022/06/20 02:19:56;;;;;;;2.40;0.80;;;;;;;25.64;42.71;101318.34;5030665;28;20065;-71
2022/06/20 02:22:23;;;;;;;1.30;0.68;;;;;;;25.62;42.64;101322.88;5030279;28;20047;-71
2022/06/20 02:24:54;;;;;;;0.82;0.50;;;;;;;25.63;42.78;101321.09;5029011;28;20476;-71
2022/06/20 02:27:27;;;;;;;0.95;0.60;;;;;;;25.62;42.74;101317.53;5030718;28;20018;-71
2022/06/20 02:29:54;;;;;;;1.88;0.73;;;;;;;25.61;42.68;101315.84;5030445;28;20507;-71
2022/06/20 02:32:26;;;;;;;1.35;0.70;;;;;;;25.59;42.89;101332.84;5030435;28;20037;-71
2022/06/20 02:34:52;;;;;;;1.77;0.80;;;;;;;25.59;42.91;101332.84;5030226;28;20037;-71
2022/06/20 02:37:24;;;;;;;1.85;0.80;;;;;;;25.58;42.64;101328.41;5029497;28;20056;-71
2022/06/20 02:39:57;;;;;;;1.30;0.70;;;;;;;25.55;42.71;101342.75;5030426;28;20029;-71
2022/06/20 02:42:39;;;;;;;1.08;0.70;;;;;;;25.57;42.94;101356.91;5030245;28;20033;-71
2022/06/20 02:45:10;;;;;;;1.45;0.77;;;;;;;25.54;42.90;101349.03;5030375;28;20033;-71
2022/06/20 02:47:40;;;;;;;1.05;0.70;;;;;;;25.54;42.99;101341.00;5028785;28;20026;-71
2022/06/20 02:50:06;;;;;;;1.20;0.70;;;;;;;25.54;42.52;101343.69;5030064;28;20079;-72
2022/06/20 02:52:45;;;;;;;1.73;0.80;;;;;;;25.53;42.79;101333.94;5029707;28;20030;-71
2022/06/20 02:55:16;;;;;;;1.67;0.70;;;;;;;25.55;42.80;101334.75;5030003;28;20364;-72
2022/06/20 02:57:45;;;;;;;1.38;0.75;;;;;;;25.57;42.73;101329.34;5029438;28;20021;-71
2022/06/20 03:00:25;;;;;;;1.25;0.70;;;;;;;25.53;42.65;101323.25;5029471;28;20048;-71
2022/06/20 03:02:59;;;;;;;1.60;0.80;;;;;;;25.53;42.71;101323.25;5029807;28;20510;-72
2022/06/20 03:05:25;;;;;;;1.10;0.68;;;;;;;25.52;42.65;101325.97;5029555;28;20041;-71
2022/06/20 03:07:52;;;;;;;1.83;0.70;;;;;;;25.52;42.92;101320.63;5029887;28;20064;-72
2022/06/20 03:10:17;;;;;;;1.13;0.60;;;;;;;25.53;42.56;101314.38;5044944;28;20037;-71
2022/06/20 03:12:43;;;;;;;1.13;0.60;;;;;;;25.52;42.63;101304.63;5029362;28;20648;-71
2022/06/20 03:15:09;;;;;;;1.05;0.70;;;;;;;25.51;42.52;101310.88;5029666;28;20044;-71
2022/06/20 03:17:35;;;;;;;1.30;0.60;;;;;;;25.50;42.61;101304.66;5029409;28;20029;-71
2022/06/20 03:20:06;;;;;;;1.27;0.70;;;;;;;25.51;42.61;101309.09;5029711;28;20059;-71
2022/06/20 03:22:40;;;;;;;2.17;0.73;;;;;;;25.50;42.67;101307.34;5029190;28;20040;-71
2022/06/20 03:25:09;;;;;;;1.63;0.80;;;;;;;25.50;42.90;101309.13;5029377;28;20078;-71
2022/06/20 03:27:38;;;;;;;1.50;0.70;;;;;;;25.48;42.79;101298.53;5044720;28;20049;-71
2022/06/20 03:30:24;;;;;;;1.83;0.80;;;;;;;25.48;42.65;101295.88;5029051;28;20056;-71
2022/06/20 03:32:50;;;;;;;1.02;0.60;;;;;;;25.49;42.63;101289.59;5027927;28;20064;-71
2022/06/20 03:35:16;;;;;;;1.10;0.60;;;;;;;25.46;42.81;101289.72;5028545;28;20022;-71
2022/06/20 03:37:42;;;;;;;1.40;0.70;;;;;;;25.45;42.88;101296.84;5027886;28;20057;-71
2022/06/20 03:40:08;;;;;;;1.70;0.70;;;;;;;25.46;42.62;101297.72;5026796;28;20068;-71
2022/06/20 03:42:34;;;;;;;2.95;0.80;;;;;;;25.45;42.57;101299.53;5027455;28;20483;-71
2022/06/20 03:45:05;;;;;;;1.40;0.68;;;;;;;25.43;42.77;101298.72;5028074;28;20033;-71
2022/06/20 03:47:41;;;;;;;1.17;0.65;;;;;;;25.44;42.68;101297.78;5027914;28;20026;-71
2022/06/20 03:50:24;;;;;;;1.10;0.70;;;;;;;25.45;42.56;101298.66;5027779;28;20033;-71
2022/06/20 03:53:03;;;;;;;0.93;0.60;;;;;;;25.42;42.71;101294.34;5028727;28;20037;-71
2022/06/20 03:55:34;;;;;;;1.42;0.70;;;;;;;25.40;42.90;101301.53;5028588;28;20547;-71
2022/06/20 03:58:07;;;;;;;3.05;0.70;;;;;;;25.38;42.64;101297.16;5026524;28;20029;-71
2022/06/20 04:00:50;;;;;;;1.80;0.80;;;;;;;25.39;42.91;101288.22;5029055;28;20093;-71
2022/06/20 04:03:26;;;;;;;1.58;0.70;;;;;;;25.39;42.78;101290.91;5028793;28;20049;-71
2022/06/20 04:06:02;;;;;;;1.55;0.70;;;;;;;25.39;42.91;101293.56;5028659;28;20109;-71
2022/06/20 04:11:20;;;;;;;2.65;0.80;;;;;;;25.36;43.05;101289.25;5028749;28;20084;-71
2022/06/20 04:13:59;;;;;;;1.73;0.70;;;;;;;25.35;42.94;101282.16;5028533;28;20032;-71
2022/06/20 04:16:42;;;;;;;1.65;0.85;;;;;;;25.36;42.59;101289.25;5027479;28;20033;-71
2022/06/20 04:19:13;;;;;;;1.15;0.70;;;;;;;25.36;42.53;101289.25;5028524;28;20087;-71
2022/06/20 04:21:47;;;;;;;2.13;0.70;;;;;;;25.36;42.81;101289.25;5027913;28;20036;-71
2022/06/20 04:24:39;;;;;;;1.48;0.90;;;;;;;25.37;42.61;101277.63;5028776;28;20025;-71
2022/06/20 04:27:11;;;;;;;1.08;0.70;;;;;;;25.41;42.57;101273.03;5011743;28;20056;-71
2022/06/20 04:29:44;;;;;;;1.50;0.70;;;;;;;25.41;42.78;101276.56;5043984;28;20017;-71
2022/06/20 04:32:33;;;;;;;1.35;0.80;;;;;;;25.40;42.50;101274.84;5027932;28;20037;-71
2022/06/20 04:35:05;;;;;;;0.82;0.70;;;;;;;25.42;42.29;101274.78;5017850;28;20050;-71
2022/06/20 04:37:46;;;;;;;1.30;0.68;;;;;;;25.41;42.52;101279.25;5028053;28;20056;-71
2022/06/20 04:40:23;;;;;;;1.55;0.73;;;;;;;25.43;42.57;101265.84;5022516;28;20090;-71
2022/06/20 04:43:10;;;;;;;1.58;0.70;;;;;;;25.41;42.31;101271.22;5028390;28;20025;-71
2022/06/20 04:45:45;;;;;;;0.77;0.50;;;;;;;25.42;42.63;101269.44;5029745;28;20466;-71
2022/06/20 04:48:17;;;;;;;0.95;0.63;;;;;;;25.42;42.55;101264.09;5032266;28;20498;-71
2022/06/20 04:50:49;;;;;;;1.48;0.73;;;;;;;25.37;42.47;101256.25;5032285;28;20033;-71
2022/06/20 04:53:28;;;;;;;1.48;0.70;;;;;;;25.39;42.63;101259.75;5031776;28;20078;-71
2022/06/20 04:55:57;;;;;;;1.00;0.75;;;;;;;25.39;42.64;101257.06;5026939;28;20036;-72
2022/06/20 04:58:47;;;;;;;2.88;0.70;;;;;;;25.40;42.57;101256.16;5046908;28;20033;-72
2022/06/20 05:01:12;;;;;;;5.18;0.88;;;;;;;25.40;42.21;101263.28;5030361;28;20048;-72
2022/06/20 05:03:45;;;;;;;1.10;0.60;;;;;;;25.37;42.44;101258.94;5031800;28;20063;-72
2022/06/20 05:06:20;;;;;;;0.87;0.63;;;;;;;25.38;42.64;101262.47;5031069;28;20052;-72
2022/06/20 05:08:50;;;;;;;0.93;0.50;;;;;;;25.37;42.53;101253.59;5031650;28;20483;-72
2022/06/20 05:11:38;;;;;;;1.25;0.70;;;;;;;25.36;42.80;101257.22;5030371;28;20120;-72
2022/06/20 05:14:09;;;;;;;1.27;0.80;;;;;;;25.38;42.64;101262.47;5030000;28;20399;-72
2022/06/20 05:16:39;;;;;;;1.67;0.90;;;;;;;25.40;42.44;101257.94;5031879;28;20025;-71
2022/06/20 05:19:12;;;;;;;0.80;0.55;;;;;;;25.40;42.65;101261.47;5032346;28;20021;-71
2022/06/20 05:21:46;;;;;;;1.60;0.67;;;;;;;25.41;42.39;101260.56;5031049;28;20026;-72
2022/06/20 05:24:20;;;;;;;1.00;0.70;;;;;;;25.39;42.59;101258.88;5030331;28;20283;-72
2022/06/20 05:26:49;;;;;;;1.20;0.70;;;;;;;25.39;42.75;101264.22;5032412;28;20064;-72
2022/06/20 05:29:21;;;;;;;0.90;0.60;;;;;;;25.38;42.45;101263.34;5032338;28;20017;-72
2022/06/20 05:31:52;;;;;;;1.92;0.80;;;;;;;25.39;42.60;101269.56;5032083;28;20037;-72
2022/06/20 05:34:30;;;;;;;1.77;0.88;;;;;;;25.39;42.89;101280.22;5032183;28;20100;-72
2022/06/20 05:37:00;;;;;;;2.20;0.80;;;;;;;25.35;42.92;101275.97;5028714;28;20555;-69
2022/06/20 05:39:31;;;;;;;1.67;0.70;;;;;;;25.39;42.84;101270.41;5035962;28;20109;-65
2022/06/20 05:41:58;;;;;;;1.50;0.70;;;;;;;25.40;42.94;101274.84;5036218;28;20048;-65
2022/06/20 05:44:24;;;;;;;3.55;0.80;;;;;;;25.44;42.81;101279.09;5036375;28;20430;-65
2022/06/20 05:47:11;;;;;;;3.53;1.05;;;;;;;25.48;43.20;101289.66;5036027;28;20037;-66
2022/06/20 05:49:43;;;;;;;2.13;0.68;;;;;;;25.52;42.90;101300.16;5035838;28;20471;-65
2022/06/20 05:52:16;;;;;;;1.80;0.80;;;;;;;25.55;43.06;101300.03;5036106;28;20486;-65
2022/06/20 05:54:53;;;;;;;2.72;0.90;;;;;;;25.57;42.83;101298.19;5035807;28;20043;-65
2022/06/20 05:57:21;;;;;;;1.20;0.70;;;;;;;25.62;42.92;101306.00;5027318;28;20033;-65
2022/06/20 05:59:52;;;;;;;2.95;0.80;;;;;;;25.64;42.63;101298.78;5035345;28;20076;-65
2022/06/20 06:02:52;;;;;;;1.58;0.70;;;;;;;25.68;43.08;101303.06;5035351;28;20025;-66
2022/06/20 06:06:00;;;;;;;3.75;0.85;;;;;;;25.70;42.95;101319.91;5013410;28;20041;-65
2022/06/20 06:08:45;;;;;;;2.65;0.70;;;;;;;25.72;42.92;101318.91;5007850;28;20450;-65
2022/06/20 06:11:29;;;;;;;1.38;0.70;;;;;;;25.74;43.00;101318.81;5035635;28;20029;-65
2022/06/20 06:14:04;;;;;;;2.35;0.80;;;;;;;25.75;42.92;101320.56;5035330;28;20044;-65
2022/06/20 06:16:46;;;;;;;1.92;0.80;;;;;;;25.78;42.90;101325.78;5035225;28;20030;-65
2022/06/20 06:19:16;;;;;;;1.10;0.80;;;;;;;25.80;42.99;101324.78;5035315;28;20033;-64
2022/06/20 06:21:44;;;;;;;1.48;0.80;;;;;;;25.82;43.06;101320.25;5022436;28;20389;-64
2022/06/20 06:24:12;;;;;;;1.30;0.80;;;;;;;25.85;43.00;101322.81;5035253;28;20451;-64
2022/06/20 06:26:39;;;;;;;2.00;0.85;;;;;;;25.85;42.92;101328.16;5034778;28;20033;-66
2022/06/20 06:29:14;;;;;;;1.67;0.80;;;;;;;25.86;43.02;101335.19;5035097;28;20021;-66
2022/06/20 06:31:42;;;;;;;1.63;0.90;;;;;;;25.86;42.99;101331.66;5035193;28;20060;-65
2022/06/20 06:34:14;;;;;;;1.13;0.65;;;;;;;25.84;43.44;101334.41;5034753;28;20419;-65
2022/06/20 06:36:51;;;;;;;2.08;0.88;;;;;;;25.87;43.08;101341.41;5034943;28;20095;-66
2022/06/20 06:39:25;;;;;;;1.65;0.80;;;;;;;25.92;43.08;101338.56;5034789;28;20037;-65
2022/06/20 06:41:55;;;;;;;1.73;0.80;;;;;;;25.91;43.01;101345.72;5034786;28;20051;-66
2022/06/20 06:44:37;;;;;;;1.20;0.70;;;;;;;25.93;43.07;101353.63;5034883;28;20025;-65
2022/06/20 06:47:05;;;;;;;1.83;0.80;;;;;;;25.93;43.02;101342.94;5034962;28;20033;-65
2022/06/20 06:49:36;;;;;;;1.30;0.90;;;;;;;25.94;43.06;101355.38;5034662;28;20021;-66
2022/06/20 06:52:08;;;;;;;2.05;0.85;;;;;;;25.96;43.01;101354.38;5034821;28;20056;-65
2022/06/20 06:55:11;;;;;;;1.52;0.90;;;;;;;25.99;42.79;101353.38;5034648;28;20037;-67
2022/06/20 06:57:42;;;;;;;1.80;0.70;;;;;;;25.97;43.08;101344.56;5030631;28;20479;-64
2022/06/20 07:00:08;;;;;;;2.53;1.02;;;;;;;26.00;43.15;101349.78;5034438;28;20033;-66
2022/06/20 07:02:44;;;;;;;6.03;1.15;;;;;;;26.01;42.91;101347.03;5033782;28;20037;-66
2022/06/20 07:05:28;;;;;;;4.53;1.10;;;;;;;26.01;43.12;101348.84;5034401;28;20112;-66
2022/06/20 07:11:11;;;;;;;12.27;1.27;;;;;;;25.96;44.26;101356.19;5029914;28;19920;-83
2022/06/20 07:13:37;;;;;;;5.63;1.08;;;;;;;26.14;43.47;101356.28;5019991;28;20128;-75
2022/06/20 07:16:11;;;;;;;9.95;1.10;;;;;;;26.16;43.58;101351.75;5013120;28;20033;-78
2022/06/20 07:18:47;;;;;;;5.63;1.00;;;;;;;26.10;43.58;101359.16;5019635;28;20061;-78
2022/06/20 07:21:17;;;;;;;8.90;1.50;;;;;;;26.11;43.62;101352.84;5014884;28;20025;-81
2022/06/20 07:23:45;;;;;;;7.80;1.15;;;;;;;26.18;43.71;101357.00;5012519;28;20029;-81
2022/06/20 07:26:13;;;;;;;5.28;1.25;;;;;;;26.18;43.69;101357.88;5036305;28;20049;-81
2022/06/20 07:28:50;;;;;;;5.22;1.10;;;;;;;26.23;43.69;101363.00;5007418;28;20022;-80
2022/06/20 07:31:26;;;;;;;6.85;1.50;;;;;;;26.30;43.59;101356.50;5013951;28;20159;-80
2022/06/20 07:33:57;;;;;;;8.48;1.58;;;;;;;26.34;43.39;101350.09;5021432;28;20029;-72
2022/06/20 07:36:28;;;;;;;12.23;1.50;;;;;;;26.36;43.23;101352.66;5033508;28;20492;-72
2022/06/20 07:39:26;;;;;;;5.18;1.30;;;;;;;26.41;43.04;101354.19;5033816;28;20046;-72
2022/06/20 07:41:58;;;;;;;8.10;1.48;;;;;;;26.47;42.93;101353.09;5033532;28;20021;-72
2022/06/20 07:44:50;;;;;;;7.32;1.30;;;;;;;26.47;43.01;101353.09;5033717;28;20021;-72
2022/06/20 07:47:26;;;;;;;8.90;1.50;;;;;;;26.51;42.88;101350.19;5033612;28;20033;-73
2022/06/20 07:49:58;;;;;;;4.78;1.20;;;;;;;26.51;42.98;101347.53;5019639;28;20022;-74
2022/06/20 07:52:30;;;;;;;3.90;1.25;;;;;;;26.52;42.95;101345.72;5013715;28;20025;-74
2022/06/20 07:55:02;;;;;;;12.43;1.47;;;;;;;26.56;42.71;101348.19;5013672;28;20026;-73
2022/06/20 07:57:37;;;;;;;5.75;1.15;;;;;;;26.59;42.76;101350.69;5012563;28;20275;-73
2022/06/20 08:00:12;;;;;;;14.40;1.42;;;;;;;26.67;43.07;101359.25;5028452;28;20113;-72
2022/06/20 08:02:49;;;;;;;10.82;1.10;;;;;;;26.79;42.76;101359.63;5023581;28;20041;-75
2022/06/20 08:05:21;;;;;;;5.10;1.50;;;;;;;26.88;43.13;101353.84;5012956;28;20660;-74
2022/06/20 08:08:17;;;;;;;8.93;1.70;;;;;;;26.89;42.82;101361.84;5014032;28;20022;-73
2022/06/20 08:10:52;;;;;;;3.78;1.38;;;;;;;26.89;42.61;101359.19;5015753;28;20124;-75
2022/06/20 08:13:24;;;;;;;7.93;1.52;;;;;;;26.90;42.54;101360.00;5016667;28;20029;-67
2022/06/20 08:15:53;;;;;;;3.72;1.50;;;;;;;26.96;42.00;101351.69;5018722;28;20061;-67
2022/06/20 08:18:20;;;;;;;4.32;1.38;;;;;;;26.97;42.05;101362.34;5019959;28;20036;-67
2022/06/20 08:20:53;;;;;;;4.60;1.30;;;;;;;26.99;41.96;101364.94;5026924;28;20045;-67
2022/06/20 08:23:28;;;;;;;3.92;1.30;;;;;;;26.94;41.86;101373.22;5018921;28;20044;-67
2022/06/20 08:26:02;;;;;;;7.22;1.20;;;;;;;26.96;41.61;101367.75;5025262;28;20061;-67
2022/06/20 08:28:48;;;;;;;7.43;1.40;;;;;;;26.98;41.29;101352.50;5019497;28;20048;-67
2022/06/20 08:31:20;;;;;;;8.55;1.52;;;;;;;27.00;41.17;101361.34;5016656;28;20037;-66
2022/06/20 08:33:55;;;;;;;7.28;1.58;;;;;;;26.96;40.80;101360.59;5018425;28;20625;-66
2022/06/20 08:36:29;;;;;;;4.35;1.67;;;;;;;26.96;40.53;101360.59;5010677;28;20025;-66
2022/06/20 08:39:00;;;;;;;4.47;1.60;;;;;;;26.99;39.61;101368.50;5020091;28;20070;-67
2022/06/20 08:41:46;;;;;;;6.30;1.70;;;;;;;27.01;39.38;101368.44;5033388;28;20029;-73
2022/06/20 08:44:36;;;;;;;5.97;1.48;;;;;;;27.09;39.60;101365.38;5020398;28;20038;-71
2022/06/20 08:47:26;;;;;;;8.00;1.73;;;;;;;27.11;39.78;101369.72;5028242;28;20068;-70
2022/06/20 08:50:00;;;;;;;6.43;1.67;;;;;;;27.22;39.32;101371.88;5033265;28;20021;-71
2022/06/20 08:53:06;;;;;;;4.13;1.45;;;;;;;27.28;39.29;101374.28;5033051;28;20036;-73
2022/06/20 08:55:34;;;;;;;4.43;1.83;;;;;;;27.31;39.29;101375.00;4998063;28;20038;-73
2022/06/20 08:58:03;;;;;;;3.65;1.48;;;;;;;27.35;39.55;101375.72;5034278;28;20026;-72
2022/06/20 09:00:34;;;;;;;5.50;1.75;;;;;;;27.35;39.60;101379.25;5029133;28;20057;-72
2022/06/20 09:03:02;;;;;;;7.97;1.70;;;;;;;27.33;39.50;101380.25;5011944;28;20030;-73
2022/06/20 09:05:27;;;;;;;4.20;1.48;;;;;;;27.38;39.43;101380.94;5020143;28;20021;-73
2022/06/20 09:08:12;;;;;;;6.60;1.73;;;;;;;27.42;39.60;101378.03;5012712;28;20040;-73
2022/06/20 09:10:47;;;;;;;3.20;1.60;;;;;;;27.44;39.44;101377.97;5029772;28;20032;-73
2022/06/20 09:13:18;;;;;;;7.93;1.60;;;;;;;27.44;39.49;101383.31;5031099;28;20080;-74
2022/06/20 09:15:50;;;;;;;8.05;1.60;;;;;;;27.38;39.66;101388.97;5014662;28;20542;-66
2022/06/20 09:18:34;;;;;;;4.25;1.50;;;;;;;27.37;39.42;101389.91;5015653;28;20429;-66
2022/06/20 09:21:41;;;;;;;7.80;1.60;;;;;;;27.30;40.08;101399.16;5027730;28;20040;-68
2022/06/20 09:24:48;;;;;;;5.07;1.50;;;;;;;27.40;39.71;101395.09;5007751;28;20041;-66
2022/06/20 09:27:21;;;;;;;5.55;1.52;;;;;;;27.42;39.78;101396.78;5000310;28;20062;-67
2022/06/20 09:29:57;;;;;;;8.32;1.70;;;;;;;27.43;39.68;101386.94;5010481;28;20030;-67
2022/06/20 09:32:32;;;;;;;5.97;1.67;;;;;;;27.45;39.75;101390.38;5017283;28;20032;-71
2022/06/20 09:35:13;;;;;;;5.97;1.80;;;;;;;27.52;39.83;101391.84;5032946;28;20022;-70
2022/06/20 09:37:57;;;;;;;9.38;1.83;;;;;;;27.53;39.60;101390.06;5035900;28;20187;-70
2022/06/20 09:40:25;;;;;;;;;;;;;;;27.56;39.47;101393.47;5034274;28;20040;-70
2022/06/20 09:43:08;;;;;;;6.72;1.83;;;;;;;27.59;39.30;101395.97;5020461;28;19920;-71
2022/06/20 09:46:05;;;;;;;3.90;1.67;;;;;;;27.61;39.27;101393.22;5036221;28;20021;-70
2022/06/20 09:49:09;;;;;;;8.05;1.90;;;;;;;27.62;39.38;101398.53;5029557;28;20042;-70
2022/06/20 09:51:55;;;;;;;5.75;1.48;;;;;;;27.56;39.04;101398.81;5009053;28;20113;-71
2022/06/20 09:54:30;;;;;;;4.80;1.60;;;;;;;27.64;39.33;101399.28;5023909;28;20388;-72
2022/06/20 09:57:36;;;;;;;7.32;1.90;;;;;;;27.62;39.23;101403.00;5011154;28;20037;-72
2022/06/20 10:00:08;;;;;;;7.20;1.75;;;;;;;27.59;39.24;101400.47;5015759;28;20496;-73
2022/06/20 10:03:01;;;;;;;6.15;1.80;;;;;;;27.64;38.98;101401.97;5017963;28;20022;-75
2022/06/20 10:05:53;;;;;;;11.73;1.93;;;;;;;27.62;38.63;101408.38;5013811;28;20100;-66
2022/06/20 10:08:58;;;;;;;8.20;1.60;;;;;;;27.57;38.69;101408.56;5024980;28;20295;-65
2022/06/20 10:11:34;;;;;;;4.70;1.60;;;;;;;27.51;38.85;101397.28;5017488;28;20120;-65
2022/06/20 10:14:15;;;;;;;6.85;1.60;;;;;;;27.53;39.02;101401.63;5017325;28;20077;-66
2022/06/20 10:16:46;;;;;;;4.60;1.60;;;;;;;27.56;39.06;101404.19;5007691;28;20033;-65
2022/06/20 10:19:21;;;;;;;7.13;1.60;;;;;;;27.55;39.23;101405.13;5008839;28;20022;-65
2022/06/20 10:22:03;;;;;;;6.10;1.80;;;;;;;27.50;38.97;101414.28;5008356;28;20068;-66
2022/06/20 10:24:56;;;;;;;8.48;1.70;;;;;;;27.44;39.04;101415.44;5008453;28;20508;-66
2022/06/20 10:27:34;;;;;;;7.70;1.75;;;;;;;27.54;38.94;101419.44;5005037;28;20088;-66
2022/06/20 10:30:08;;;;;;;9.07;1.60;;;;;;;27.62;39.00;101421.75;5015980;28;20049;-65
2022/06/20 10:32:57;;;;;;;17.25;1.90;;;;;;;27.62;39.08;101419.94;5024881;28;20021;-64
2022/06/20 10:36:03;;;;;;;10.38;2.00;;;;;;;27.64;39.04;101417.19;5015072;28;20464;-75
2022/06/20 10:38:37;;;;;;;5.68;1.65;;;;;;;27.80;39.14;101420.84;4991728;28;20049;-68
2022/06/20 10:41:16;;;;;;;15.93;2.10;;;;;;;27.75;38.97;101415.69;5019994;28;20044;-70
2022/06/20 10:43:44;;;;;;;8.23;1.70;;;;;;;27.66;38.95;101408.13;5021457;28;20029;-69
2022/06/20 10:46:18;;;;;;;5.90;1.52;;;;;;;27.62;38.89;101422.63;5008806;28;20353;-69
2022/06/20 10:49:04;;;;;;;7.18;1.63;;;;;;;27.54;38.95;101424.81;5023995;28;20025;-70
2022/06/20 10:51:54;;;;;;;7.30;1.70;;;;;;;27.55;38.78;101431.91;5010150;28;20024;-69
2022/06/20 10:54:40;;;;;;;6.15;1.50;;;;;;;27.54;38.96;101434.66;5018297;28;20079;-70
2022/06/20 10:57:24;;;;;;;6.60;1.55;;;;;;;27.57;38.72;101434.50;5017275;28;20049;-69
2022/06/20 11:00:04;;;;;;;8.00;1.52;;;;;;;27.57;38.81;101424.63;5011206;28;20026;-69
2022/06/20 11:02:48;;;;;;;5.00;1.45;;;;;;;27.55;38.71;101434.59;5014741;28;20039;-69
2022/06/20 11:05:24;;;;;;;;;;;;;;;27.56;38.56;101430.97;5026159;28;20590;-70
2022/06/20 11:08:01;;;;;;;5.30;1.70;;;;;;;27.56;38.63;101430.97;5007713;28;19956;-69
2022/06/20 11:11:01;;;;;;;4.20;1.58;;;;;;;27.53;38.50;101435.59;5012644;28;20029;-69
2022/06/20 11:13:51;;;;;;;7.15;1.60;;;;;;;27.52;38.35;101449.91;5017521;28;20029;-70
2022/06/20 11:16:35;;;;;;;5.13;1.50;;;;;;;27.52;38.50;101434.72;5011510;28;20048;-70
2022/06/20 11:19:25;;;;;;;4.55;1.55;;;;;;;27.54;38.32;101446.22;5012001;28;20679;-70
2022/06/20 11:22:25;;;;;;;4.47;1.40;;;;;;;27.53;38.33;101444.50;5017052;28;20041;-69
2022/06/20 11:25:01;;;;;;;6.50;1.48;;;;;;;27.56;38.05;101448.84;5012388;28;20371;-69
2022/06/20 11:27:34;;;;;;;6.78;1.45;;;;;;;27.55;38.11;101457.81;5018312;28;20030;-69
2022/06/20 11:30:04;;;;;;;4.47;1.52;;;;;;;27.56;38.27;101451.53;5017896;28;20022;-69
2022/06/20 11:33:04;;;;;;;6.25;1.40;;;;;;;27.53;37.88;101447.16;5015871;28;20021;-69
2022/06/20 11:35:47;;;;;;;7.13;1.58;;;;;;;27.54;38.20;101453.41;5007804;28;20101;-69
2022/06/20 11:38:51;;;;;;;3.10;1.40;;;;;;;27.51;38.05;101459.75;5009733;28;20076;-69
2022/06/20 11:41:30;;;;;;;4.00;1.42;;;;;;;27.49;37.87;101450.91;5023093;28;20073;-69
2022/06/20 11:44:30;;;;;;;6.10;1.42;;;;;;;27.50;37.76;101447.28;5017281;28;20025;-69
2022/06/20 11:47:09;;;;;;;4.13;1.30;;;;;;;27.52;37.59;101447.22;5015311;28;20037;-69
2022/06/20 11:49:40;;;;;;;6.15;1.50;;;;;;;27.49;37.67;101453.59;5014367;28;20110;-69
2022/06/20 11:52:18;;;;;;;3.33;1.52;;;;;;;27.49;37.70;101455.41;5012785;28;20037;-69
2022/06/20 11:55:31;;;;;;;4.75;1.33;;;;;;;27.46;37.65;101461.75;5025532;28;20032;-70
2022/06/20 11:58:20;;;;;;;3.25;1.20;;;;;;;27.43;37.57;101469.94;4988420;28;20452;-69
2022/06/20 12:00:57;;;;;;;3.13;1.20;;;;;;;27.41;37.60;101472.69;5014330;28;20037;-69
2022/06/20 12:03:49;;;;;;;3.03;1.38;;;;;;;27.43;37.38;101476.19;5017502;28;20052;-69
2022/06/20 12:06:27;;;;;;;3.63;1.27;;;;;;;27.44;37.65;101475.25;5012536;28;20025;-69
2022/06/20 12:09:17;;;;;;;3.60;1.40;;;;;;;27.48;37.38;101483.97;5009118;28;20461;-68
2022/06/20 12:11:56;;;;;;;7.45;1.33;;;;;;;27.45;38.09;101482.31;5020494;28;20448;-73
2022/06/20 12:14:47;;;;;;;9.50;1.50;;;;;;;27.55;36.86;101485.47;5024159;28;20040;-73